Time;durP1;ratioP1;P1;durP2;ratioP2;P2;SDS_P1;SDS_P2;PMS_P1;PMS_P2;Temp;Humidity;BMP_temperature;BMP_pressure;BME280_temperature;BME280_humidity;BME280_pressure;Samples;Min_cycle;Max_cycle;Signal;HPM_P1;HPM_P2
2022/05/15 00:01:05;;;;;;;;;;;;;;;10.21;100.00;96149.56;1039269;28;19909;-72
2022/05/15 00:01:35;;;;;;;;;;;;;;;10.21;100.00;96144.31;1036803;28;19913;-72
2022/05/15 00:02:05;;;;;;;;;;;;;;;10.18;100.00;96144.81;1035370;28;19913;-72
2022/05/15 00:02:36;;;;;;;;;;;;;;;10.19;100.00;96143.75;1035268;28;19918;-72
2022/05/15 00:03:11;;;;;;;;;;;;;;;10.21;100.00;96145.09;1035011;28;19948;-71
2022/05/15 00:03:41;;;;;;;;;;;;;;;10.24;100.00;96149.06;1035546;28;19914;-72
2022/05/15 00:04:11;;;;;;;;;;;;;;;10.23;100.00;96142.22;1027007;28;19914;-71
2022/05/15 00:04:41;;;;;;;;;;;;;;;10.21;100.00;96144.31;1028051;28;19918;-73
2022/05/15 00:05:12;;;;;;;;;;;;;;;10.18;100.00;96142.19;1030780;28;19925;-71
2022/05/15 00:05:42;;;;;;;;;;;;;;;10.20;100.00;96143.53;1031239;28;20576;-72
2022/05/15 00:06:12;;;;;;;;;;;;;;;10.17;100.00;96144.03;1035323;28;19913;-72
2022/05/15 00:06:46;;;;;;;;;;;;;;;10.17;100.00;96149.28;1035113;28;19925;-73
2022/05/15 00:07:19;;;;;;;;;;;;;;;10.15;100.00;96146.09;1035914;28;20474;-72
2022/05/15 00:07:49;;;;;;;;;;;;;;;10.14;100.00;96139.28;1039457;28;19920;-72
2022/05/15 00:08:20;;;;;;;;;;;;;;;10.13;100.00;96145.56;1039238;28;20513;-72
2022/05/15 00:08:50;;;;;;;;;;;;;;;10.11;100.00;96150.25;1027887;28;19945;-71
2022/05/15 00:09:20;;;;;;;;;;;;;;;10.10;100.00;96149.47;1026898;28;20459;-72
2022/05/15 00:09:53;;;;;;;;;;;;;;;10.14;100.00;96147.94;1022384;28;19946;-71
2022/05/15 00:10:24;;;;;;;;;;;;;;;10.17;100.00;96143.25;1020230;28;20010;-71
2022/05/15 00:10:55;;;;;;;;;;;;;;;10.16;100.00;96145.06;1023645;28;19914;-71
2022/05/15 00:11:25;;;;;;;;;;;;;;;10.13;100.00;96143.72;1018619;29;20432;-71
2022/05/15 00:11:55;;;;;;;;;;;;;;;10.11;100.00;96140.56;1020752;29;20268;-71
2022/05/15 00:12:26;;;;;;;;;;;;;;;10.09;100.00;96137.41;1027027;28;19921;-72
2022/05/15 00:12:56;;;;;;;;;;;;;;;10.10;100.00;96139.00;1023304;28;19914;-72
2022/05/15 00:13:26;;;;;;;;;;;;;;;10.08;100.00;96141.06;1024739;28;19918;-72
2022/05/15 00:13:57;;;;;;;;;;;;;;;10.09;100.00;96136.59;1027287;28;20018;-72
2022/05/15 00:14:27;;;;;;;;;;;;;;;10.07;100.00;96139.47;1027112;28;19949;-72
2022/05/15 00:14:57;;;;;;;;;;;;;;;10.06;100.00;96139.72;1031165;28;19921;-72
2022/05/15 00:15:30;;;;;;;;;;;;;;;10.10;100.00;96148.69;1031055;28;19984;-71
2022/05/15 00:16:00;;;;;;;;;;;;;;;10.08;100.00;96142.88;1027914;28;20694;-72
2022/05/15 00:16:34;;;;;;;;;;;;;;;10.08;100.00;96143.69;1029520;28;19913;-72
2022/05/15 00:17:04;;;;;;;;;;;;;;;10.06;100.00;96137.91;1027615;28;19915;-71
2022/05/15 00:17:34;;;;;;;;;;;;;;;10.04;100.00;96142.59;1027681;28;20451;-72
2022/05/15 00:18:05;;;;;;;;;;;;;;;10.03;100.00;96137.63;1031270;28;19915;-71
2022/05/15 00:18:36;;;;;;;;;;;;;;;10.04;100.00;96139.19;1033412;28;20376;-72
2022/05/15 00:19:06;;;;;;;;;;;;;;;10.04;100.00;96139.19;1035230;28;19975;-71
2022/05/15 00:19:36;;;;;;;;;;;;;;;10.04;100.00;96133.94;1030423;28;19999;-73
2022/05/15 00:20:07;;;;;;;;;;;;;;;10.02;100.00;96136.81;1030861;28;19965;-72
2022/05/15 00:20:39;;;;;;;;;;;;;;;10.02;100.00;96138.63;1027151;28;19914;-72
2022/05/15 00:21:09;;;;;;;;;;;;;;;9.99;100.00;96139.91;1027785;28;19918;-72
2022/05/15 00:21:40;;;;;;;;;;;;;;;9.99;100.00;96137.28;1023167;28;19906;-72
2022/05/15 00:22:10;;;;;;;;;;;;;;;9.99;100.00;96141.75;1027012;28;20009;-72
2022/05/15 00:22:40;;;;;;;;;;;;;;;9.97;100.00;96144.63;1027015;28;19957;-72
2022/05/15 00:23:11;;;;;;;;;;;;;;;9.96;100.00;96144.88;1027133;28;19906;-72
2022/05/15 00:23:41;;;;;;;;;;;;;;;9.84;100.00;96119.59;1026888;28;19910;-72
2022/05/15 00:24:12;;;;;;;;;;;;;;;9.99;100.00;96133.88;1023193;28;19962;-72
2022/05/15 00:24:45;;;;;;;;;;;;;;;9.96;100.00;96140.44;1023111;28;20443;-72
2022/05/15 00:25:15;;;;;;;;;;;;;;;9.94;100.00;96134.63;1027370;28;19910;-72
2022/05/15 00:25:45;;;;;;;;;;;;;;;9.94;100.00;96134.63;1031047;28;20399;-72
2022/05/15 00:26:16;;;;;;;;;;;;;;;9.99;100.00;96144.38;1031984;28;19902;-73
2022/05/15 00:26:46;;;;;;;;;;;;;;;10.00;100.00;96133.66;1035009;28;19996;-72
2022/05/15 00:27:16;;;;;;;;;;;;;;;9.99;100.00;96139.91;1030944;28;20004;-72
2022/05/15 00:27:47;;;;;;;;;;;;;;;9.97;100.00;96134.16;1026932;28;19953;-72
2022/05/15 00:28:18;;;;;;;;;;;;;;;9.76;100.00;96106.16;1031160;28;19908;-72
2022/05/15 00:28:48;;;;;;;;;;;;;;;9.94;100.00;96139.09;1029821;28;19906;-72
2022/05/15 00:29:18;;;;;;;;;;;;;;;9.93;100.00;96133.06;1031095;28;19910;-72
2022/05/15 00:29:49;;;;;;;;;;;;;;;9.94;100.00;96133.84;1030254;28;20018;-71
2022/05/15 00:30:19;;;;;;;;;;;;;;;9.92;100.00;96139.31;1034860;28;19987;-72
2022/05/15 00:30:49;;;;;;;;;;;;;;;9.90;100.00;96136.19;1031037;28;20356;-72
2022/05/15 00:31:20;;;;;;;;;;;;;;;9.94;100.00;96126.00;1031153;28;20347;-73
2022/05/15 00:31:52;;;;;;;;;;;;;;;9.90;100.00;96133.56;1030924;28;19948;-72
2022/05/15 00:32:23;;;;;;;;;;;;;;;9.88;100.00;96131.16;1031221;28;20431;-71
2022/05/15 00:32:53;;;;;;;;;;;;;;;9.88;100.00;96127.75;1035949;28;19910;-72
2022/05/15 00:33:23;;;;;;;;;;;;;;;9.88;100.00;96130.38;1035138;28;19906;-72
2022/05/15 00:33:54;;;;;;;;;;;;;;;9.90;100.00;96133.56;1026896;28;20033;-72
2022/05/15 00:34:41;;;;;;;;;;;;;;;9.87;100.00;96128.81;1023185;29;20036;-72
2022/05/15 00:35:11;;;;;;;;;;;;;;;9.87;100.00;96128.81;1027556;28;19914;-72
2022/05/15 00:35:41;;;;;;;;;;;;;;;9.93;100.00;96133.06;1031359;28;19913;-72
2022/05/15 00:36:12;;;;;;;;;;;;;;;9.99;100.00;96126.81;1034944;28;19913;-72
2022/05/15 00:36:42;;;;;;;;;;;;;;;9.98;100.00;96129.69;1035002;28;19913;-73
2022/05/15 00:37:12;;;;;;;;;;;;;;;9.97;100.00;96131.53;1034961;28;19917;-72
2022/05/15 00:37:42;;;;;;;;;;;;;;;10.01;100.00;96127.38;1031112;28;19910;-72
2022/05/15 00:38:13;;;;;;;;;;;;;;;10.02;100.00;96128.94;1039086;28;19909;-72
2022/05/15 00:38:44;;;;;;;;;;;;;;;9.99;100.00;96132.06;1034906;28;19992;-70
2022/05/15 00:39:17;;;;;;;;;;;;;;;9.96;100.00;96129.13;1035177;28;19931;-72
2022/05/15 00:39:47;;;;;;;;;;;;;;;9.94;100.00;96133.84;1034405;28;19902;-72
2022/05/15 00:40:18;;;;;;;;;;;;;;;9.93;100.00;96133.06;1035164;28;20635;-72
2022/05/15 00:40:48;;;;;;;;;;;;;;;9.92;100.00;96131.47;1035127;28;19916;-72
2022/05/15 00:41:19;;;;;;;;;;;;;;;9.91;100.00;96129.91;1030740;28;19902;-72
2022/05/15 00:41:49;;;;;;;;;;;;;;;9.91;100.00;96127.28;1035030;28;20290;-72
2022/05/15 00:42:20;;;;;;;;;;;;;;;9.91;100.00;96130.69;1030891;28;19920;-72
2022/05/15 00:42:50;;;;;;;;;;;;;;;9.93;100.00;96133.06;1026996;28;19910;-72
2022/05/15 00:43:37;;;;;;;;;;;;;;;9.91;100.00;96137.75;1031166;28;19906;-72
2022/05/15 00:44:07;;;;;;;;;;;;;;;9.87;100.00;96132.22;1033209;28;19914;-72
2022/05/15 00:44:38;;;;;;;;;;;;;;;9.84;100.00;96131.94;1037277;28;20687;-72
2022/05/15 00:45:08;;;;;;;;;;;;;;;9.80;100.00;96133.47;1039211;28;19914;-71
2022/05/15 00:45:38;;;;;;;;;;;;;;;9.81;100.00;96133.22;1033882;28;19914;-73
2022/05/15 00:46:11;;;;;;;;;;;;;;;9.80;100.00;96129.00;1031093;28;19921;-72
2022/05/15 00:46:41;;;;;;;;;;;;;;;9.79;100.00;96129.25;1027118;28;19910;-72
2022/05/15 00:47:14;;;;;;;;;;;;;;;9.76;100.00;96133.16;1023051;29;19910;-72
2022/05/15 00:47:44;;;;;;;;;;;;;;;9.75;100.00;96130.78;1026964;28;20435;-72
2022/05/15 00:48:15;;;;;;;;;;;;;;;9.73;100.00;96133.66;1027135;28;19907;-72
2022/05/15 00:48:45;;;;;;;;;;;;;;;9.71;100.00;96130.47;1032205;28;19969;-71
2022/05/15 00:49:15;;;;;;;;;;;;;;;9.70;100.00;96125.50;1035031;28;20016;-72
2022/05/15 00:49:45;;;;;;;;;;;;;;;9.70;100.00;96128.13;1030440;28;20447;-72
2022/05/15 00:50:18;;;;;;;;;;;;;;;9.71;100.00;96124.47;1026864;28;19910;-72
2022/05/15 00:50:48;;;;;;;;;;;;;;;9.71;100.00;96127.88;1030658;28;20671;-72
2022/05/15 00:51:20;;;;;;;;;;;;;;;9.71;100.00;96121.84;1031426;28;19933;-72
2022/05/15 00:51:51;;;;;;;;;;;;;;;9.74;100.00;96129.22;1027548;28;19914;-72
2022/05/15 00:52:24;;;;;;;;;;;;;;;9.53;100.00;96091.53;1035193;28;19909;-72
2022/05/15 00:52:56;;;;;;;;;;;;;;;9.67;100.00;96122.31;1035070;28;20036;-72
2022/05/15 00:53:27;;;;;;;;;;;;;;;9.74;100.00;96123.97;1031749;28;19913;-72
2022/05/15 00:53:59;;;;;;;;;;;;;;;9.70;100.00;96128.13;1027091;28;19942;-72
2022/05/15 00:54:32;;;;;;;;;;;;;;;9.67;100.00;96118.91;1022802;29;20041;-72
2022/05/15 00:55:12;;;;;;;;;;;;;;;9.67;100.00;96124.16;1023780;28;19913;-72
2022/05/15 00:55:43;;;;;;;;;;;;;;;9.64;100.00;96125.44;1030728;28;19917;-72
2022/05/15 00:56:13;;;;;;;;;;;;;;;9.63;100.00;96126.50;1034873;28;19917;-72
2022/05/15 00:56:45;;;;;;;;;;;;;;;9.61;100.00;96131.16;1033495;28;20323;-71
2022/05/15 00:57:19;;;;;;;;;;;;;;;9.59;100.00;96125.41;1030895;28;19916;-72
2022/05/15 00:57:54;;;;;;;;;;;;;;;9.57;100.00;96124.84;1030749;28;19909;-72
2022/05/15 00:58:26;;;;;;;;;;;;;;;9.57;100.00;96130.09;1028371;28;20662;-72
2022/05/15 00:58:57;;;;;;;;;;;;;;;9.54;100.00;96135.03;1032163;28;20461;-72
2022/05/15 00:59:27;;;;;;;;;;;;;;;9.53;100.00;96126.38;1023769;28;19917;-72
2022/05/15 00:59:58;;;;;;;;;;;;;;;9.55;100.00;96126.91;1029326;28;20616;-72
2022/05/15 01:00:28;;;;;;;;;;;;;;;9.53;100.00;96125.59;1035010;28;20637;-72
2022/05/15 01:00:58;;;;;;;;;;;;;;;9.51;100.00;96128.44;1031224;28;20006;-72
2022/05/15 01:01:29;;;;;;;;;;;;;;;9.50;100.00;96129.50;1034474;28;19960;-72
2022/05/15 01:01:59;;;;;;;;;;;;;;;9.51;100.00;96131.06;1026992;28;20279;-72
2022/05/15 01:02:32;;;;;;;;;;;;;;;9.50;100.00;96123.47;1027087;28;19929;-72
2022/05/15 01:03:06;;;;;;;;;;;;;;;9.51;100.00;96125.81;1031167;28;19917;-72
2022/05/15 01:03:39;;;;;;;;;;;;;;;9.50;100.00;96128.69;1031864;28;20629;-72
2022/05/15 01:04:10;;;;;;;;;;;;;;;9.47;100.00;96124.75;1034894;28;19909;-72
2022/05/15 01:04:40;;;;;;;;;;;;;;;9.51;100.00;96125.81;1030887;28;19909;-72
2022/05/15 01:05:11;;;;;;;;;;;;;;;9.52;100.00;96127.41;1034989;28;19906;-73
2022/05/15 01:05:42;;;;;;;;;;;;;;;9.55;100.00;96124.28;1026803;28;19914;-72
2022/05/15 01:06:13;;;;;;;;;;;;;;;9.57;100.00;96129.28;1026981;28;19910;-72
2022/05/15 01:06:43;;;;;;;;;;;;;;;9.57;100.00;96130.09;1025268;28;19911;-71
2022/05/15 01:07:13;;;;;;;;;;;;;;;9.57;100.00;96131.91;1027144;28;19922;-72
2022/05/15 01:07:44;;;;;;;;;;;;;;;9.57;100.00;96129.28;1030939;28;19940;-71
2022/05/15 01:08:14;;;;;;;;;;;;;;;9.61;100.00;96133.00;1030741;28;19906;-72
2022/05/15 01:08:44;;;;;;;;;;;;;;;9.60;100.00;96126.97;1030812;28;19910;-72
2022/05/15 01:09:14;;;;;;;;;;;;;;;9.60;100.00;96132.22;1031179;28;19998;-72
2022/05/15 01:09:45;;;;;;;;;;;;;;;9.59;100.00;96132.44;1030152;28;20470;-72
2022/05/15 01:10:15;;;;;;;;;;;;;;;9.60;100.00;96132.22;1039162;28;19909;-72
2022/05/15 01:10:46;;;;;;;;;;;;;;;9.61;100.00;96120.69;1039076;28;20402;-71
2022/05/15 01:11:18;;;;;;;;;;;;;;;9.65;100.00;96131.47;1039014;28;19905;-72
2022/05/15 01:11:48;;;;;;;;;;;;;;;9.64;100.00;96125.44;1026875;28;20570;-72
2022/05/15 01:12:19;;;;;;;;;;;;;;;9.64;100.00;96120.19;1030833;28;19912;-72
2022/05/15 01:12:49;;;;;;;;;;;;;;;9.66;100.00;96128.63;1027072;28;20351;-72
2022/05/15 01:13:19;;;;;;;;;;;;;;;9.65;100.00;96134.88;1023115;28;20276;-72
2022/05/15 01:13:50;;;;;;;;;;;;;;;9.67;100.00;96139.88;1026682;28;19915;-72
2022/05/15 01:14:20;;;;;;;;;;;;;;;9.64;100.00;96130.69;1027234;28;20316;-71
2022/05/15 01:14:51;;;;;;;;;;;;;;;9.64;100.00;96129.91;1026908;28;19902;-72
2022/05/15 01:15:23;;;;;;;;;;;;;;;9.63;100.00;96129.09;1034452;28;19906;-72
2022/05/15 01:15:54;;;;;;;;;;;;;;;9.63;100.00;96126.50;1039101;28;20618;-72
2022/05/15 01:16:25;;;;;;;;;;;;;;;9.62;100.00;96131.97;1037376;28;19905;-70
2022/05/15 01:16:55;;;;;;;;;;;;;;;9.61;100.00;96123.31;1031886;28;19981;-72
2022/05/15 01:17:25;;;;;;;;;;;;;;;9.60;100.00;96123.56;1026924;28;19914;-72
2022/05/15 01:17:56;;;;;;;;;;;;;;;9.60;100.00;96126.19;1026661;28;20498;-72
2022/05/15 01:18:32;;;;;;;;;;;;;;;9.57;100.00;96124.06;1035042;28;19905;-72
2022/05/15 01:19:03;;;;;;;;;;;;;;;9.53;100.00;96125.59;1039019;28;19905;-72
2022/05/15 01:19:34;;;;;;;;;;;;;;;9.50;100.00;96118.22;1030414;28;19913;-70
2022/05/15 01:20:09;;;;;;;;;;;;;;;9.48;100.00;96123.69;1029910;28;19961;-73
2022/05/15 01:20:40;;;;;;;;;;;;;;;9.47;100.00;96119.50;1027709;28;20061;-72
2022/05/15 01:21:21;;;;;;;;;;;;;;;9.43;100.00;96121.81;1027623;28;19906;-72
2022/05/15 01:21:56;;;;;;;;;;;;;;;9.42;100.00;96122.88;1022659;28;19914;-71
2022/05/15 01:22:26;;;;;;;;;;;;;;;9.42;100.00;96119.44;1020668;29;20419;-73
2022/05/15 01:22:57;;;;;;;;;;;;;;;9.40;100.00;96119.69;1025268;28;19915;-73
2022/05/15 01:23:29;;;;;;;;;;;;;;;9.41;100.00;96121.25;1028306;28;20097;-72
2022/05/15 01:24:00;;;;;;;;;;;;;;;9.41;100.00;96120.47;1035522;28;20306;-72
2022/05/15 01:24:30;;;;;;;;;;;;;;;9.39;100.00;96120.72;1034901;28;19925;-72
2022/05/15 01:25:01;;;;;;;;;;;;;;;9.40;100.00;96124.13;1035114;28;19909;-72
2022/05/15 01:25:32;;;;;;;;;;;;;;;9.40;100.00;96122.31;1035455;28;19949;-72
2022/05/15 01:26:03;;;;;;;;;;;;;;;9.41;100.00;96120.47;1034933;28;20290;-73
2022/05/15 01:26:33;;;;;;;;;;;;;;;9.36;100.00;96115.97;1034568;28;19914;-72
2022/05/15 01:27:05;;;;;;;;;;;;;;;9.35;100.00;96108.34;1034812;28;19920;-71
2022/05/15 01:27:35;;;;;;;;;;;;;;;9.36;100.00;96117.81;1035211;28;19913;-72
2022/05/15 01:28:13;;;;;;;;;;;;;;;9.34;100.00;96123.28;1035024;28;19910;-71
2022/05/15 01:28:46;;;;;;;;;;;;;;;9.34;100.00;96114.63;1035042;28;19914;-71
2022/05/15 01:29:17;;;;;;;;;;;;;;;9.33;100.00;96115.69;1034876;28;19968;-72
2022/05/15 01:29:50;;;;;;;;;;;;;;;9.34;100.00;96117.25;1035944;28;20011;-72
2022/05/15 01:30:20;;;;;;;;;;;;;;;9.38;100.00;96120.97;1034800;28;20464;-72
2022/05/15 01:30:53;;;;;;;;;;;;;;;9.35;100.00;96113.59;1031783;28;19959;-72
2022/05/15 01:31:24;;;;;;;;;;;;;;;9.33;100.00;96116.47;1030903;28;19920;-71
2022/05/15 01:31:54;;;;;;;;;;;;;;;9.33;100.00;96118.31;1030812;28;19921;-72
2022/05/15 01:32:27;;;;;;;;;;;;;;;9.34;100.00;96114.63;1027250;28;19910;-72
2022/05/15 01:32:58;;;;;;;;;;;;;;;9.35;100.00;96116.22;1031197;28;19914;-72
2022/05/15 01:33:28;;;;;;;;;;;;;;;9.32;100.00;96119.31;1035026;28;19949;-72
2022/05/15 01:33:59;;;;;;;;;;;;;;;9.31;100.00;96126.38;1037975;28;20558;-72
2022/05/15 01:34:29;;;;;;;;;;;;;;;9.30;100.00;96119.56;1038871;28;19913;-72
2022/05/15 01:35:00;;;;;;;;;;;;;;;9.27;100.00;96119.28;1039024;28;20667;-72
2022/05/15 01:35:30;;;;;;;;;;;;;;;9.27;100.00;96119.28;1028232;28;19921;-71
2022/05/15 01:36:01;;;;;;;;;;;;;;;9.29;100.00;96117.19;1026790;28;19914;-71
2022/05/15 01:36:31;;;;;;;;;;;;;;;9.26;100.00;96112.47;1031051;28;20387;-71
2022/05/15 01:37:01;;;;;;;;;;;;;;;9.25;100.00;96114.25;1030639;28;19913;-71
2022/05/15 01:37:32;;;;;;;;;;;;;;;9.22;100.00;96109.50;1030775;28;19914;-72
2022/05/15 01:38:02;;;;;;;;;;;;;;;9.21;100.00;96111.34;1039050;28;19921;-73
2022/05/15 01:38:32;;;;;;;;;;;;;;;9.20;100.00;96109.78;1034703;28;19909;-73
2022/05/15 01:39:03;;;;;;;;;;;;;;;9.20;100.00;96109.78;1033510;28;20584;-72
2022/05/15 01:39:34;;;;;;;;;;;;;;;9.19;100.00;96113.44;1034468;28;20325;-71
2022/05/15 01:40:05;;;;;;;;;;;;;;;9.18;100.00;96111.84;1030577;28;19945;-72
2022/05/15 01:40:35;;;;;;;;;;;;;;;9.23;100.00;96112.94;1030883;28;19914;-72
2022/05/15 01:41:07;;;;;;;;;;;;;;;9.19;100.00;96113.44;1026504;28;19921;-72
2022/05/15 01:41:37;;;;;;;;;;;;;;;9.19;100.00;96115.25;1027388;28;19924;-72
2022/05/15 01:42:08;;;;;;;;;;;;;;;9.18;100.00;96111.03;1034977;28;19940;-73
2022/05/15 01:42:38;;;;;;;;;;;;;;;9.18;100.00;96108.44;1034910;28;19953;-72
2022/05/15 01:43:09;;;;;;;;;;;;;;;9.16;100.00;96111.31;1034689;28;20040;-73
2022/05/15 01:43:40;;;;;;;;;;;;;;;9.15;100.00;96112.34;1030888;28;19918;-72
2022/05/15 01:44:10;;;;;;;;;;;;;;;9.14;100.00;96110.75;1022452;28;19919;-72
2022/05/15 01:44:43;;;;;;;;;;;;;;;9.13;100.00;96118.84;1023434;29;19914;-72
2022/05/15 01:45:14;;;;;;;;;;;;;;;9.14;100.00;96112.56;1019502;29;20406;-72
2022/05/15 01:45:44;;;;;;;;;;;;;;;9.11;100.00;96116.47;1026918;28;19914;-71
2022/05/15 01:46:15;;;;;;;;;;;;;;;9.10;100.00;96109.66;1035626;28;19953;-72
2022/05/15 01:46:48;;;;;;;;;;;;;;;9.10;100.00;96108.88;1034968;28;19914;-72
2022/05/15 01:47:19;;;;;;;;;;;;;;;9.10;100.00;96106.25;1027213;28;19917;-73
2022/05/15 01:47:49;;;;;;;;;;;;;;;9.08;100.00;96106.47;1030817;28;19921;-72
2022/05/15 01:48:19;;;;;;;;;;;;;;;9.08;100.00;96106.47;1031491;28;19925;-74
2022/05/15 01:48:50;;;;;;;;;;;;;;;9.06;100.00;96110.41;1035000;28;20559;-72
2022/05/15 01:49:20;;;;;;;;;;;;;;;9.05;100.00;96106.97;1030469;28;19914;-73
2022/05/15 01:49:51;;;;;;;;;;;;;;;9.04;100.00;96105.38;1026360;28;19925;-72
2022/05/15 01:50:21;;;;;;;;;;;;;;;9.04;100.00;96115.06;1030822;28;19924;-73
2022/05/15 01:50:52;;;;;;;;;;;;;;;9.03;100.00;96106.44;1030673;28;20334;-72
2022/05/15 01:51:22;;;;;;;;;;;;;;;9.04;100.00;96108.00;1030928;28;20164;-73
2022/05/15 01:51:53;;;;;;;;;;;;;;;9.06;100.00;96108.56;1030846;28;19906;-72
2022/05/15 01:52:23;;;;;;;;;;;;;;;9.06;100.00;96113.78;1026729;28;20480;-71
2022/05/15 01:52:53;;;;;;;;;;;;;;;9.03;100.00;96109.03;1030735;28;20442;-72
2022/05/15 01:53:24;;;;;;;;;;;;;;;9.02;100.00;96107.47;1027343;28;19906;-71
2022/05/15 01:53:54;;;;;;;;;;;;;;;9.02;100.00;96107.47;1030586;28;19906;-72
2022/05/15 01:54:24;;;;;;;;;;;;;;;9.02;100.00;96107.47;1035254;28;19910;-72
2022/05/15 01:54:55;;;;;;;;;;;;;;;9.02;100.00;96106.66;1039748;28;20155;-72
2022/05/15 01:55:25;;;;;;;;;;;;;;;9.03;100.00;96109.03;1039668;28;20333;-72
2022/05/15 01:55:55;;;;;;;;;;;;;;;9.02;100.00;96106.66;1035413;28;19952;-72
2022/05/15 01:56:26;;;;;;;;;;;;;;;9.02;100.00;96109.28;1027087;28;19958;-72
2022/05/15 01:56:56;;;;;;;;;;;;;;;9.00;100.00;96104.28;1027450;28;19906;-72
2022/05/15 01:57:29;;;;;;;;;;;;;;;9.01;100.00;96108.50;1031066;28;20676;-71
2022/05/15 01:58:00;;;;;;;;;;;;;;;9.01;100.00;96111.09;1032285;28;19906;-72
2022/05/15 01:58:30;;;;;;;;;;;;;;;8.99;100.00;96107.94;1039790;28;19905;-71
2022/05/15 01:59:00;;;;;;;;;;;;;;;8.98;100.00;96107.13;1031474;28;19910;-72
2022/05/15 01:59:30;;;;;;;;;;;;;;;8.98;100.00;96107.13;1031454;28;19917;-73
2022/05/15 02:00:01;;;;;;;;;;;;;;;8.97;100.00;96110.00;1031377;28;19906;-72
2022/05/15 02:00:31;;;;;;;;;;;;;;;8.96;100.00;96108.44;1031451;28;19905;-72
2022/05/15 02:01:02;;;;;;;;;;;;;;;8.96;100.00;96103.19;1035846;28;20001;-72
2022/05/15 02:01:32;;;;;;;;;;;;;;;8.97;100.00;96110.00;1026970;28;20573;-72
2022/05/15 02:02:02;;;;;;;;;;;;;;;8.96;100.00;96105.81;1027633;28;19910;-72
2022/05/15 02:02:33;;;;;;;;;;;;;;;8.97;100.00;96112.63;1027567;28;20027;-72
2022/05/15 02:03:03;;;;;;;;;;;;;;;8.95;100.00;96112.06;1031826;28;19920;-72
2022/05/15 02:03:34;;;;;;;;;;;;;;;8.95;100.00;96112.06;1039645;28;19917;-72
2022/05/15 02:04:04;;;;;;;;;;;;;;;8.96;100.00;96105.81;1031241;28;19925;-72
2022/05/15 02:04:34;;;;;;;;;;;;;;;8.95;100.00;96106.84;1031635;28;20383;-73
2022/05/15 02:05:05;;;;;;;;;;;;;;;8.93;100.00;96104.47;1030324;28;19914;-72
2022/05/15 02:05:35;;;;;;;;;;;;;;;8.92;100.00;96107.31;1031702;28;19945;-72
2022/05/15 02:06:06;;;;;;;;;;;;;;;8.92;100.00;96109.94;1031369;28;20538;-72
2022/05/15 02:06:36;;;;;;;;;;;;;;;8.90;100.00;96110.19;1031503;28;19914;-73
2022/05/15 02:07:06;;;;;;;;;;;;;;;8.93;100.00;96106.31;1027403;28;19913;-71
2022/05/15 02:07:36;;;;;;;;;;;;;;;8.93;100.00;96108.91;1031493;28;19953;-72
2022/05/15 02:08:07;;;;;;;;;;;;;;;8.93;100.00;96108.91;1031305;28;19909;-71
2022/05/15 02:08:37;;;;;;;;;;;;;;;8.92;100.00;96104.69;1031518;28;19913;-72
2022/05/15 02:09:08;;;;;;;;;;;;;;;8.92;100.00;96107.31;1039630;28;19920;-72
2022/05/15 02:09:39;;;;;;;;;;;;;;;8.91;100.00;96101.28;1030935;28;19945;-71
2022/05/15 02:10:09;;;;;;;;;;;;;;;8.91;100.00;96110.97;1024329;28;19919;-72
2022/05/15 02:10:40;;;;;;;;;;;;;;;8.92;100.00;96113.38;1023708;28;19913;-72
2022/05/15 02:11:10;;;;;;;;;;;;;;;8.92;100.00;96107.31;1027504;28;19914;-72
2022/05/15 02:11:40;;;;;;;;;;;;;;;8.91;100.00;96106.53;1036724;28;19916;-71
2022/05/15 02:12:10;;;;;;;;;;;;;;;8.90;100.00;96109.41;1031461;28;19909;-72
2022/05/15 02:12:41;;;;;;;;;;;;;;;8.95;100.00;96105.03;1027484;28;19914;-72
2022/05/15 02:13:11;;;;;;;;;;;;;;;9.00;100.00;96108.75;1019641;29;20341;-72
2022/05/15 02:13:41;;;;;;;;;;;;;;;9.01;100.00;96111.09;1027299;28;19940;-73
2022/05/15 02:14:12;;;;;;;;;;;;;;;8.97;100.00;96102.94;1035567;28;19921;-73
2022/05/15 02:14:42;;;;;;;;;;;;;;;8.97;100.00;96104.78;1039772;28;20096;-72
2022/05/15 02:15:12;;;;;;;;;;;;;;;8.96;100.00;96108.44;1031346;28;19917;-72
2022/05/15 02:15:43;;;;;;;;;;;;;;;8.94;100.00;96105.25;1027668;28;19926;-71
2022/05/15 02:16:13;;;;;;;;;;;;;;;8.94;100.00;96100.81;1027492;28;19981;-72
2022/05/15 02:16:43;;;;;;;;;;;;;;;8.97;100.00;96110.00;1031286;28;19966;-71
2022/05/15 02:17:14;;;;;;;;;;;;;;;8.97;100.00;96104.78;1031616;28;20032;-72
2022/05/15 02:17:44;;;;;;;;;;;;;;;8.95;100.00;96101.59;1035490;28;19913;-72
2022/05/15 02:18:14;;;;;;;;;;;;;;;8.94;100.00;96105.25;1031371;28;20252;-72
2022/05/15 02:18:47;;;;;;;;;;;;;;;8.91;100.00;96106.53;1035415;28;19913;-71
2022/05/15 02:19:21;;;;;;;;;;;;;;;8.92;100.00;96102.09;1031469;28;19914;-72
2022/05/15 02:19:51;;;;;;;;;;;;;;;8.90;100.00;96104.16;1027537;28;19993;-72
2022/05/15 02:20:21;;;;;;;;;;;;;;;8.87;100.00;96100.19;1028696;28;20016;-72
2022/05/15 02:20:51;;;;;;;;;;;;;;;8.88;100.00;96106.22;1027516;28;19910;-72
2022/05/15 02:21:22;;;;;;;;;;;;;;;8.87;100.00;96104.66;1027624;28;20689;-71
2022/05/15 02:21:52;;;;;;;;;;;;;;;8.86;100.00;96097.84;1023205;28;19973;-72
2022/05/15 02:22:22;;;;;;;;;;;;;;;8.84;100.00;96105.91;1023401;29;19966;-72
2022/05/15 02:22:53;;;;;;;;;;;;;;;8.83;100.00;96103.56;1023612;29;19914;-72
2022/05/15 02:23:23;;;;;;;;;;;;;;;8.82;100.00;96091.47;1023414;29;19919;-72
2022/05/15 02:23:53;;;;;;;;;;;;;;;8.83;100.00;96099.09;1031238;28;19956;-72
2022/05/15 02:24:23;;;;;;;;;;;;;;;8.84;100.00;96102.50;1027333;28;19922;-71
2022/05/15 02:24:54;;;;;;;;;;;;;;;8.82;100.00;96105.38;1023459;29;19961;-72
2022/05/15 02:25:27;;;;;;;;;;;;;;;8.80;100.00;96099.59;1027329;28;19914;-71
2022/05/15 02:25:58;;;;;;;;;;;;;;;8.79;100.00;96102.47;1036013;28;19909;-72
2022/05/15 02:26:31;;;;;;;;;;;;;;;8.76;100.00;96098.50;1039600;28;19913;-72
2022/05/15 02:27:01;;;;;;;;;;;;;;;8.76;100.00;96098.50;1034398;28;19914;-72
2022/05/15 02:27:32;;;;;;;;;;;;;;;8.76;100.00;96095.09;1035540;28;20307;-72
2022/05/15 02:28:03;;;;;;;;;;;;;;;8.76;100.00;96093.25;1035472;28;19932;-72
2022/05/15 02:28:34;;;;;;;;;;;;;;;8.76;100.00;96092.47;1031236;28;19914;-71
2022/05/15 02:29:04;;;;;;;;;;;;;;;8.75;100.00;96099.50;1022290;29;20059;-71
2022/05/15 02:29:35;;;;;;;;;;;;;;;8.73;100.00;96093.75;1023175;28;20005;-71
2022/05/15 02:30:05;;;;;;;;;;;;;;;8.72;100.00;96092.97;1019319;29;19919;-71
2022/05/15 02:30:35;;;;;;;;;;;;;;;8.73;100.00;96098.97;1022616;28;19922;-72
2022/05/15 02:31:06;;;;;;;;;;;;;;;8.73;100.00;96097.16;1031371;28;20295;-72
2022/05/15 02:31:36;;;;;;;;;;;;;;;8.73;100.00;96099.75;1027400;28;19914;-72
2022/05/15 02:32:06;;;;;;;;;;;;;;;8.73;100.00;96093.75;1035426;28;20035;-71
2022/05/15 02:32:38;;;;;;;;;;;;;;;8.72;100.00;96098.19;1031369;28;20410;-71
2022/05/15 02:33:08;;;;;;;;;;;;;;;8.73;100.00;96094.53;1031352;28;19998;-72
2022/05/15 02:33:38;;;;;;;;;;;;;;;8.74;100.00;96093.50;1035488;28;19923;-72
2022/05/15 02:34:09;;;;;;;;;;;;;;;8.76;100.00;96092.47;1031413;28;20376;-72
2022/05/15 02:34:39;;;;;;;;;;;;;;;8.77;100.00;96091.44;1035671;28;19918;-72
2022/05/15 02:35:09;;;;;;;;;;;;;;;8.80;100.00;96096.19;1035239;28;19914;-72
2022/05/15 02:35:40;;;;;;;;;;;;;;;8.77;100.00;96097.47;1031500;28;19918;-72
2022/05/15 02:36:10;;;;;;;;;;;;;;;8.75;100.00;96096.91;1035465;28;19910;-72
2022/05/15 02:36:40;;;;;;;;;;;;;;;8.76;100.00;96097.72;1035559;28;20003;-73
2022/05/15 02:37:10;;;;;;;;;;;;;;;8.76;100.00;96097.72;1037985;28;19924;-71
2022/05/15 02:37:41;;;;;;;;;;;;;;;8.70;100.00;96087.16;1035735;28;19956;-72
2022/05/15 02:38:11;;;;;;;;;;;;;;;8.69;100.00;96087.41;1031471;28;19945;-72
2022/05/15 02:38:41;;;;;;;;;;;;;;;8.68;100.00;96086.59;1031546;28;20242;-72
2022/05/15 02:39:12;;;;;;;;;;;;;;;8.66;100.00;96091.31;1035051;28;19981;-72
2022/05/15 02:39:45;;;;;;;;;;;;;;;8.65;100.00;96094.97;1030812;28;20302;-72
2022/05/15 02:40:16;;;;;;;;;;;;;;;8.65;100.00;96091.53;1035501;28;19921;-72
2022/05/15 02:40:47;;;;;;;;;;;;;;;8.64;100.00;96095.19;1031346;28;20004;-72
2022/05/15 02:41:19;;;;;;;;;;;;;;;8.63;100.00;96094.41;1028888;28;20438;-71
2022/05/15 02:41:49;;;;;;;;;;;;;;;8.63;100.00;96091.78;1035486;28;20004;-72